Time;durP1;ratioP1;P1;durP2;ratioP2;P2;SDS_P1;SDS_P2;PMS_P1;PMS_P2;Temp;Humidity;BMP_temperature;BMP_pressure;BME280_temperature;BME280_humidity;BME280_pressure;Samples;Min_cycle;Max_cycle;Signal;HPM_P1;HPM_P2
2022/04/27 00:00:21;;;;;;;11.33;6.20;;;;;;;15.17;43.14;102532.81;5049340;28;20404;-75
2022/04/27 00:02:46;;;;;;;13.30;6.00;;;;;;;14.87;43.31;102539.88;5048791;28;20036;-75
2022/04/27 00:05:12;;;;;;;10.97;6.47;;;;;;;14.61;43.85;102540.72;5050053;28;20036;-75
2022/04/27 00:07:37;;;;;;;12.43;4.93;;;;;;;14.86;43.54;102536.34;5045700;28;20557;-75
2022/04/27 00:10:03;;;;;;;9.83;5.83;;;;;;;14.84;43.57;102530.22;5050237;28;20163;-75
2022/04/27 00:12:28;;;;;;;11.60;5.70;;;;;;;14.54;43.45;102536.34;5048775;28;20025;-74
2022/04/27 00:14:54;;;;;;;10.27;5.93;;;;;;;14.46;44.18;102533.69;5050479;28;20361;-74
2022/04/27 00:17:19;;;;;;;9.50;5.50;;;;;;;14.30;44.23;102531.91;5050086;28;20086;-75
2022/04/27 00:19:44;;;;;;;10.07;5.90;;;;;;;14.41;43.72;102531.06;5047967;28;20036;-75
2022/04/27 00:22:11;;;;;;;10.77;5.67;;;;;;;14.54;43.42;102528.44;5050742;28;20044;-75
2022/04/27 00:24:39;;;;;;;11.40;5.63;;;;;;;14.32;44.77;102531.03;5048584;28;20127;-75
2022/04/27 00:27:05;;;;;;;11.50;5.23;;;;;;;14.46;44.22;102524.94;5046303;28;20075;-75
2022/04/27 00:29:30;;;;;;;11.27;6.20;;;;;;;14.16;44.30;102526.63;5047839;28;20037;-75
2022/04/27 00:31:56;;;;;;;12.07;5.63;;;;;;;14.12;44.52;102527.50;5048916;28;20071;-75
2022/04/27 00:34:22;;;;;;;7.93;5.10;;;;;;;14.24;43.54;102530.16;5047950;28;20107;-75
2022/04/27 00:36:47;;;;;;;10.70;5.13;;;;;;;14.49;43.71;102532.81;5048167;28;20033;-74
2022/04/27 00:39:12;;;;;;;10.80;5.30;;;;;;;14.25;43.67;102534.53;5045857;28;20117;-74
2022/04/27 00:41:38;;;;;;;10.13;5.37;;;;;;;14.45;43.94;102533.69;5029338;28;20037;-74
2022/04/27 00:44:03;;;;;;;8.23;5.40;;;;;;;14.42;43.23;102537.19;5049094;28;20032;-75
2022/04/27 00:46:32;;;;;;;10.87;6.23;;;;;;;14.03;43.99;102529.22;5046791;28;20051;-75
2022/04/27 00:48:57;;;;;;;11.73;4.90;;;;;;;14.14;44.49;102538.91;5041960;28;20211;-75
2022/04/27 00:51:24;;;;;;;10.77;5.97;;;;;;;14.12;43.80;102527.50;5040570;28;20120;-75
2022/04/27 00:53:50;;;;;;;14.20;6.73;;;;;;;14.18;44.14;102538.91;5037291;28;20209;-74
2022/04/27 00:56:21;;;;;;;10.70;5.83;;;;;;;14.12;45.02;102533.63;5047322;28;20029;-74
2022/04/27 00:58:47;;;;;;;10.17;5.67;;;;;;;14.17;43.64;102536.28;5035537;28;20403;-75
2022/04/27 01:01:13;;;;;;;8.30;5.37;;;;;;;14.37;42.88;102534.56;5047703;28;20032;-74
2022/04/27 01:03:40;;;;;;;12.30;6.33;;;;;;;14.12;44.16;102532.75;5047826;28;20025;-74
2022/04/27 01:06:06;;;;;;;17.90;7.57;;;;;;;14.33;43.18;102538.06;5046470;28;20098;-75
2022/04/27 01:08:31;;;;;;;12.63;7.40;;;;;;;14.24;43.64;102538.03;5047892;28;20040;-75
2022/04/27 01:10:59;;;;;;;10.00;6.43;;;;;;;13.69;44.83;102534.38;5046044;28;20471;-75
2022/04/27 01:13:27;;;;;;;13.00;6.83;;;;;;;13.96;44.32;102535.34;5050042;28;20040;-75
2022/04/27 01:15:52;;;;;;;11.97;5.93;;;;;;;13.94;44.20;102536.22;5032098;28;20108;-75
2022/04/27 01:18:18;;;;;;;10.87;5.93;;;;;;;14.06;44.24;102542.38;5046763;28;20140;-75
2022/04/27 01:20:44;;;;;;;13.37;6.00;;;;;;;13.97;44.47;102533.59;5047670;28;20070;-75
2022/04/27 01:23:14;;;;;;;16.13;6.87;;;;;;;14.27;44.07;102543.31;5029418;28;20458;-74
2022/04/27 01:25:52;;;;;;;12.47;5.93;;;;;;;13.95;44.92;102543.25;5032061;28;20036;-75
2022/04/27 01:28:20;;;;;;;14.17;6.53;;;;;;;13.98;44.52;102536.22;5039055;28;20040;-74
2022/04/27 01:30:46;;;;;;;16.57;6.00;;;;;;;14.00;43.71;102533.59;5045727;28;20117;-74
2022/04/27 01:33:12;;;;;;;12.30;6.87;;;;;;;13.85;44.75;102539.72;5046784;28;20028;-74
2022/04/27 01:35:37;;;;;;;11.77;6.63;;;;;;;13.99;44.61;102542.38;5041658;28;20036;-74
2022/04/27 01:38:03;;;;;;;13.07;7.17;;;;;;;14.05;44.45;102538.03;5047341;28;20143;-74
2022/04/27 01:40:30;;;;;;;15.87;7.40;;;;;;;13.84;43.92;102537.94;5049907;28;20055;-73
2022/04/27 01:42:55;;;;;;;10.77;6.00;;;;;;;14.12;44.05;102540.66;5047141;28;20260;-74
2022/04/27 01:45:21;;;;;;;16.40;6.80;;;;;;;13.65;44.68;102548.38;5048237;28;20029;-74
2022/04/27 01:47:47;;;;;;;14.53;7.37;;;;;;;13.70;45.05;102551.91;5052148;28;20384;-74
2022/04/27 01:50:12;;;;;;;15.23;6.70;;;;;;;13.54;46.20;102548.31;5051989;28;20040;-74
2022/04/27 01:55:21;;;;;;;14.87;6.30;;;;;;;13.98;43.18;102557.25;5053712;28;20124;-74
2022/04/27 01:57:48;;;;;;;11.30;6.53;;;;;;;13.88;44.01;102551.09;5047669;28;20120;-73
2022/04/27 02:00:14;;;;;;;14.23;5.93;;;;;;;14.10;43.41;102556.41;5051997;28;20040;-74
2022/04/27 02:02:40;;;;;;;13.20;6.33;;;;;;;13.95;44.03;102552.00;5051844;28;20467;-74
2022/04/27 02:05:06;;;;;;;11.80;5.73;;;;;;;13.77;45.51;102562.47;5051031;28;20119;-74
2022/04/27 02:07:31;;;;;;;13.13;5.80;;;;;;;13.62;44.84;102569.38;5050281;28;20029;-73
2022/04/27 02:09:56;;;;;;;14.77;7.03;;;;;;;13.80;44.15;102562.47;5050838;28;20029;-74
2022/04/27 02:12:22;;;;;;;13.23;7.07;;;;;;;13.85;44.64;102563.38;5042224;28;20110;-75
2022/04/27 02:14:47;;;;;;;13.00;5.70;;;;;;;13.87;44.86;102553.72;5041998;28;20064;-73
2022/04/27 02:17:12;;;;;;;13.50;6.77;;;;;;;14.04;43.76;102561.66;5050911;28;20087;-75
2022/04/27 02:19:37;;;;;;;16.20;6.80;;;;;;;13.67;44.81;102572.91;5050526;28;20434;-75
2022/04/27 02:22:04;;;;;;;10.67;6.47;;;;;;;13.28;46.10;102571.78;5050492;28;20497;-73
2022/04/27 02:24:30;;;;;;;11.83;6.47;;;;;;;13.49;44.94;102567.56;5047934;28;20033;-73
2022/04/27 02:26:55;;;;;;;11.10;6.33;;;;;;;13.52;44.97;102571.09;5050115;28;20028;-73
2022/04/27 02:29:24;;;;;;;18.63;6.73;;;;;;;13.62;44.50;102573.78;5051482;28;20040;-74
2022/04/27 02:31:50;;;;;;;13.27;7.17;;;;;;;13.35;45.18;102575.31;5050316;28;20032;-74
2022/04/27 02:34:16;;;;;;;16.50;7.90;;;;;;;13.27;45.28;102577.91;5050963;28;20029;-74
2022/04/27 02:36:41;;;;;;;14.10;6.90;;;;;;;13.32;45.08;102581.44;5050347;28;20536;-74
2022/04/27 02:39:07;;;;;;;15.30;6.73;;;;;;;13.40;45.98;102579.75;5034951;28;20037;-75
2022/04/27 02:41:32;;;;;;;13.60;6.53;;;;;;;13.65;44.35;102582.53;5049430;28;20025;-73
2022/04/27 02:43:58;;;;;;;11.50;6.27;;;;;;;13.44;45.09;102574.56;5048495;28;20033;-74
2022/04/27 02:46:23;;;;;;;12.87;6.10;;;;;;;13.69;44.33;102575.53;5049902;28;20496;-74
2022/04/27 02:54:17;;;;;;;13.90;6.27;;;;;;;13.58;45.80;102578.13;5052548;28;20471;-76
2022/04/27 02:56:43;;;;;;;14.50;7.10;;;;;;;13.39;44.92;102578.03;5049200;28;20024;-76
2022/04/27 02:59:09;;;;;;;12.80;6.40;;;;;;;13.40;44.92;102585.00;5051157;28;20028;-74
2022/04/27 03:01:35;;;;;;;15.90;7.77;;;;;;;13.51;44.98;102582.47;5049088;28;20029;-76
2022/04/27 03:04:01;;;;;;;16.77;7.90;;;;;;;13.15;45.67;102583.09;5044181;28;20029;-74
2022/04/27 03:06:26;;;;;;;19.70;8.43;;;;;;;13.36;45.06;102580.63;5044102;28;20472;-75
2022/04/27 03:08:52;;;;;;;14.30;6.83;;;;;;;13.24;44.41;102591.00;5034271;28;20032;-76
2022/04/27 03:11:17;;;;;;;13.30;6.47;;;;;;;13.36;44.87;102580.63;5049878;28;20036;-75
2022/04/27 03:13:42;;;;;;;12.90;6.37;;;;;;;13.27;45.32;102585.81;5030858;28;20200;-74
2022/04/27 03:16:08;;;;;;;18.13;7.60;;;;;;;12.91;45.85;102589.88;5038925;28;20033;-74
2022/04/27 03:18:33;;;;;;;16.37;7.70;;;;;;;13.00;46.20;102589.97;5046213;28;20056;-74
2022/04/27 03:20:58;;;;;;;12.87;6.50;;;;;;;13.05;45.23;102585.63;5048778;28;20504;-74
2022/04/27 03:23:24;;;;;;;18.47;7.33;;;;;;;13.07;45.49;102586.50;5050988;28;20029;-74
2022/04/27 03:25:49;;;;;;;14.07;7.57;;;;;;;13.22;44.63;102584.88;5033701;28;20040;-75
2022/04/27 03:28:15;;;;;;;19.30;6.77;;;;;;;13.21;45.83;102583.13;5049925;28;20055;-74
2022/04/27 03:30:40;;;;;;;16.07;7.80;;;;;;;12.84;45.58;102582.84;5050840;28;20384;-75
2022/04/27 03:33:06;;;;;;;16.97;7.07;;;;;;;12.81;46.03;102583.69;5046261;28;20071;-74
2022/04/27 03:35:31;;;;;;;13.97;6.93;;;;;;;12.64;46.11;102591.41;5043101;28;20374;-75
2022/04/27 03:37:58;;;;;;;20.87;8.30;;;;;;;13.05;45.25;102588.25;5049505;28;20151;-75
2022/04/27 03:40:24;;;;;;;19.00;7.83;;;;;;;12.65;46.54;102585.31;5050478;28;20047;-75
2022/04/27 03:42:49;;;;;;;15.20;7.53;;;;;;;12.55;47.62;102580.81;5049105;28;20115;-75
2022/04/27 03:45:15;;;;;;;14.80;7.00;;;;;;;12.83;46.09;102581.06;5049825;28;20175;-74
2022/04/27 03:47:40;;;;;;;11.33;5.90;;;;;;;12.96;46.00;102584.69;5042784;28;20068;-74
2022/04/27 03:50:06;;;;;;;13.97;6.27;;;;;;;12.73;46.72;102578.38;5044598;28;20495;-75
2022/04/27 03:52:32;;;;;;;14.93;7.00;;;;;;;12.76;45.96;102584.50;5048352;28;20060;-74
2022/04/27 03:55:00;;;;;;;15.40;7.83;;;;;;;12.67;45.99;102580.94;5049716;28;20071;-75
2022/04/27 03:57:27;;;;;;;15.63;7.23;;;;;;;12.76;46.61;102584.50;5043748;28;20033;-74
2022/04/27 03:59:53;;;;;;;13.23;7.30;;;;;;;12.53;46.58;102582.56;5040751;28;20032;-75
2022/04/27 04:02:18;;;;;;;13.83;7.97;;;;;;;12.20;47.66;102590.09;5050493;28;20028;-74
2022/04/27 04:04:43;;;;;;;14.57;7.37;;;;;;;12.45;47.34;102590.34;5047922;28;20033;-75
2022/04/27 04:07:09;;;;;;;18.03;7.67;;;;;;;12.65;45.79;102587.94;5044732;28;20026;-75
2022/04/27 04:09:34;;;;;;;18.13;7.63;;;;;;;12.60;46.80;102594.88;5032043;28;20037;-75
2022/04/27 04:11:59;;;;;;;16.80;7.80;;;;;;;13.00;45.41;102584.72;5033372;28;20032;-74
2022/04/27 04:14:25;;;;;;;17.10;7.33;;;;;;;12.75;45.22;102585.38;5050845;28;20036;-74
2022/04/27 04:16:50;;;;;;;24.03;7.57;;;;;;;12.89;45.31;102592.50;5049076;28;20033;-75
2022/04/27 04:19:16;;;;;;;13.93;6.73;;;;;;;12.97;46.23;102584.69;5034425;28;20040;-75
2022/04/27 04:21:42;;;;;;;12.20;5.77;;;;;;;12.93;45.88;102598.66;5048312;28;21146;-75
2022/04/27 04:24:07;;;;;;;14.57;6.43;;;;;;;13.17;44.67;102597.09;5049450;28;20471;-75
2022/04/27 04:29:17;;;;;;;12.83;7.73;;;;;;;12.76;46.88;102600.25;5035010;28;20047;-75
2022/04/27 04:31:42;;;;;;;14.97;6.90;;;;;;;12.84;46.77;102606.44;5048976;28;20116;-74
2022/04/27 04:34:07;;;;;;;17.07;6.73;;;;;;;12.63;46.10;102604.53;5046770;28;20124;-74
2022/04/27 04:36:33;;;;;;;13.90;6.90;;;;;;;12.75;46.29;102614.22;5048170;28;20116;-73
2022/04/27 04:38:58;;;;;;;19.53;7.03;;;;;;;12.36;47.04;102619.09;5047940;28;20464;-73
2022/04/27 04:41:23;;;;;;;16.63;7.37;;;;;;;13.00;45.48;102618.84;5049925;28;20531;-74
2022/04/27 04:43:49;;;;;;;16.80;7.33;;;;;;;12.80;45.95;102620.41;5048855;28;20028;-74
2022/04/27 04:46:14;;;;;;;18.87;7.20;;;;;;;12.90;45.47;102624.91;5049733;28;20468;-74
2022/04/27 04:48:39;;;;;;;22.43;8.27;;;;;;;12.94;45.90;102621.44;5034741;28;20033;-74
2022/04/27 04:51:05;;;;;;;13.87;7.27;;;;;;;13.24;44.66;102627.78;5029523;28;20033;-74
2022/04/27 04:53:30;;;;;;;18.67;7.47;;;;;;;13.23;45.00;102623.41;5041202;28;20370;-74
2022/04/27 04:55:56;;;;;;;15.80;6.90;;;;;;;12.72;45.78;102626.47;5028422;28;20059;-74
2022/04/27 04:58:21;;;;;;;16.43;7.43;;;;;;;12.94;45.61;102636.28;5038341;28;20481;-74
2022/04/27 05:00:48;;;;;;;14.07;6.57;;;;;;;13.33;46.04;102646.22;5040281;28;20021;-74
2022/04/27 05:03:14;;;;;;;11.03;6.13;;;;;;;12.99;46.30;102640.69;5047195;28;20033;-73
2022/04/27 05:05:43;;;;;;;15.27;7.13;;;;;;;13.20;46.07;102649.63;5042257;28;20089;-74
2022/04/27 05:08:09;;;;;;;16.37;7.27;;;;;;;13.29;45.59;102644.44;5049854;28;20063;-73
2022/04/27 05:10:38;;;;;;;12.10;6.23;;;;;;;13.27;45.86;102655.81;5045548;28;20033;-74
2022/04/27 05:13:04;;;;;;;16.73;6.43;;;;;;;13.38;46.51;102657.69;5048863;28;20033;-74
2022/04/27 05:15:30;;;;;;;16.10;6.17;;;;;;;13.24;45.85;102656.66;5049709;28;20028;-74
2022/04/27 05:17:56;;;;;;;16.83;8.13;;;;;;;13.48;45.43;102655.13;5046116;28;20040;-74
2022/04/27 05:20:22;;;;;;;16.73;6.37;;;;;;;13.38;46.28;102660.31;5037314;28;20030;-74
2022/04/27 05:22:47;;;;;;;16.57;7.97;;;;;;;13.78;44.63;102669.31;5045696;28;20090;-74
2022/04/27 05:25:12;;;;;;;15.60;6.93;;;;;;;14.18;44.08;102661.66;5050123;28;20047;-75
2022/04/27 05:27:38;;;;;;;16.70;6.83;;;;;;;13.92;44.32;102672.91;5040210;28;20029;-74
2022/04/27 05:32:50;;;;;;;14.70;7.20;;;;;;;14.42;44.90;102671.34;5039404;28;20068;-75
2022/04/27 05:35:15;;;;;;;15.67;6.97;;;;;;;14.16;45.24;102676.53;5047890;28;20029;-74
2022/04/27 05:37:41;;;;;;;16.30;7.30;;;;;;;14.38;44.48;102675.75;5047208;28;20075;-74
2022/04/27 05:40:08;;;;;;;14.13;7.10;;;;;;;14.25;45.55;102682.69;5044792;28;20025;-74
2022/04/27 05:42:35;;;;;;;16.63;7.63;;;;;;;14.18;46.19;102674.78;5048845;28;20090;-75
2022/04/27 05:45:00;;;;;;;17.80;7.73;;;;;;;14.52;45.28;102680.16;5046951;28;20034;-75
2022/04/27 05:47:26;;;;;;;15.37;6.83;;;;;;;14.74;44.72;102671.47;5035220;28;20056;-75
2022/04/27 05:49:51;;;;;;;12.73;6.93;;;;;;;14.86;44.51;102680.28;5046681;28;20029;-75
2022/04/27 05:52:18;;;;;;;11.77;6.57;;;;;;;15.25;44.26;102689.09;5050037;28;20061;-75
2022/04/27 05:54:44;;;;;;;12.23;5.47;;;;;;;15.50;43.62;102689.94;5047843;28;20509;-76
2022/04/27 05:57:09;;;;;;;15.70;7.47;;;;;;;15.25;43.46;102683.81;5048758;28;20229;-75
2022/04/27 05:59:35;;;;;;;16.30;7.63;;;;;;;15.35;43.89;102688.19;5029566;28;20230;-75
2022/04/27 06:02:01;;;;;;;14.50;7.57;;;;;;;15.75;43.80;102690.75;5050005;28;20029;-75
2022/04/27 06:04:26;;;;;;;15.97;6.80;;;;;;;15.68;44.53;102690.78;5048954;28;20029;-75
2022/04/27 06:06:53;;;;;;;18.40;8.10;;;;;;;15.95;44.35;102692.53;5040674;28;20029;-75
2022/04/27 06:09:18;;;;;;;20.33;8.00;;;;;;;15.91;44.89;102696.06;5047867;28;20136;-76
2022/04/27 06:11:44;;;;;;;15.07;7.17;;;;;;;16.39;43.71;102699.38;5046770;28;20517;-76
2022/04/27 06:14:09;;;;;;;14.20;6.57;;;;;;;15.69;45.85;102703.97;5047732;28;20039;-74
2022/04/27 06:16:35;;;;;;;14.43;7.37;;;;;;;15.92;44.57;102709.22;5048505;28;20075;-74
2022/04/27 06:19:01;;;;;;;14.13;6.00;;;;;;;16.27;45.07;102702.06;5047531;28;20035;-74
2022/04/27 06:21:31;;;;;;;13.30;6.60;;;;;;;16.63;43.91;102686.94;5047139;28;20128;-74
2022/04/27 06:23:58;;;;;;;18.67;6.53;;;;;;;16.44;43.78;102697.59;5047300;28;20451;-75
2022/04/27 06:26:24;;;;;;;12.60;6.10;;;;;;;17.38;42.09;102695.19;5031126;28;20030;-75
2022/04/27 06:28:49;;;;;;;12.50;5.33;;;;;;;18.00;41.52;102702.53;5039635;28;20039;-74
2022/04/27 06:31:14;;;;;;;9.47;5.03;;;;;;;17.97;41.75;102706.13;5044539;28;20061;-75
2022/04/27 06:33:40;;;;;;;9.17;4.97;;;;;;;18.66;41.23;102709.66;5051502;28;20060;-74
2022/04/27 06:36:05;;;;;;;11.73;5.27;;;;;;;19.18;39.76;102712.41;5051322;28;20069;-74
2022/04/27 06:38:31;;;;;;;9.10;4.50;;;;;;;19.93;39.46;102710.22;5051744;28;20090;-74
2022/04/27 06:40:56;;;;;;;11.57;6.57;;;;;;;19.83;38.49;102712.19;5052238;28;20033;-75
2022/04/27 06:43:22;;;;;;;12.53;4.83;;;;;;;19.44;39.16;102710.22;5039050;28;20025;-74
2022/04/27 06:45:47;;;;;;;9.33;4.63;;;;;;;20.22;38.28;102714.06;5038031;28;20043;-75
2022/04/27 06:48:13;;;;;;;8.37;4.23;;;;;;;20.60;37.73;102715.88;5049704;28;20040;-74
2022/04/27 06:50:38;;;;;;;6.90;4.33;;;;;;;20.11;35.64;102723.16;5052450;28;20029;-76
2022/04/27 06:53:04;;;;;;;9.40;4.73;;;;;;;20.90;37.25;102713.47;5038969;28;20397;-74
2022/04/27 06:55:30;;;;;;;7.07;3.87;;;;;;;20.77;35.43;102719.97;5038419;28;20091;-74
2022/04/27 06:57:55;;;;;;;7.07;3.63;;;;;;;20.96;34.64;102723.09;5042677;28;20073;-74
2022/04/27 07:00:21;;;;;;;9.40;3.93;;;;;;;22.24;34.74;102721.50;5045325;28;20155;-74
2022/04/27 07:02:46;;;;;;;5.83;3.40;;;;;;;20.68;34.17;102729.03;5050728;28;20552;-74
2022/04/27 07:05:17;;;;;;;3.80;2.80;;;;;;;19.15;34.59;102738.09;5049141;28;20480;-74
2022/04/27 07:07:43;;;;;;;6.77;3.37;;;;;;;21.08;32.37;102730.75;5053226;28;20033;-75
2022/04/27 07:10:10;;;;;;;4.47;3.43;;;;;;;22.59;33.42;102738.28;5047797;28;20492;-74
2022/04/27 07:12:35;;;;;;;6.93;4.32;;;;;;;23.17;32.34;102739.06;5050212;28;20047;-75
2022/04/27 07:15:01;;;;;;;14.00;4.40;;;;;;;23.00;31.93;102736.09;5045256;28;20025;-75
2022/04/27 07:17:26;;;;;;;7.30;4.20;;;;;;;22.08;33.18;102737.94;5055877;28;20424;-74
2022/04/27 07:19:52;;;;;;;5.45;3.28;;;;;;;23.85;31.88;102749.22;5036140;28;20118;-74
2022/04/27 07:22:17;;;;;;;5.05;3.30;;;;;;;22.25;30.60;102747.22;5050698;28;20076;-74
2022/04/27 07:24:44;;;;;;;8.95;3.35;;;;;;;24.03;29.87;102753.94;5042300;28;20092;-75
2022/04/27 07:27:09;;;;;;;8.50;3.60;;;;;;;25.19;29.39;102749.44;5050814;28;20118;-75
2022/04/27 07:29:35;;;;;;;10.10;4.50;;;;;;;23.24;29.81;102752.22;5048287;28;20048;-75
2022/04/27 07:32:01;;;;;;;5.85;3.30;;;;;;;22.11;31.54;102764.47;5050274;28;20404;-74
2022/04/27 07:34:26;;;;;;;5.90;3.10;;;;;;;23.01;30.44;102767.13;5054217;28;20472;-74
2022/04/27 07:36:52;;;;;;;8.68;3.90;;;;;;;23.26;30.58;102761.03;5047257;28;20087;-74
2022/04/27 07:39:17;;;;;;;6.15;3.67;;;;;;;24.11;29.17;102766.13;5040399;28;20166;-74
2022/04/27 07:41:45;;;;;;;8.27;4.88;;;;;;;23.80;29.48;102762.72;5050891;28;20119;-74
2022/04/27 07:44:11;;;;;;;6.38;3.88;;;;;;;23.38;29.86;102769.53;5051359;28;20039;-75
2022/04/27 07:46:36;;;;;;;7.28;3.90;;;;;;;23.31;30.01;102761.75;5048327;28;20342;-74
2022/04/27 07:49:02;;;;;;;7.43;4.15;;;;;;;24.50;27.54;102760.22;5048684;28;20037;-74
2022/04/27 07:51:27;;;;;;;6.38;3.40;;;;;;;25.13;27.57;102768.44;5049387;28;20041;-74
2022/04/27 07:53:52;;;;;;;4.95;2.83;;;;;;;25.47;26.22;102763.47;5051223;28;20036;-74
2022/04/27 07:56:18;;;;;;;6.72;3.10;;;;;;;25.16;25.45;102762.09;5047779;28;20026;-74
2022/04/27 07:58:43;;;;;;;8.73;2.70;;;;;;;24.60;25.46;102768.75;5051920;28;20024;-74
2022/04/27 08:01:09;;;;;;;4.72;2.55;;;;;;;23.94;26.16;102774.75;5044868;28;20480;-75
2022/04/27 08:03:34;;;;;;;5.22;2.53;;;;;;;22.83;27.18;102777.50;5043078;28;20060;-74
2022/04/27 08:06:02;;;;;;;3.70;2.53;;;;;;;23.19;27.20;102774.59;5048982;28;20116;-75
2022/04/27 08:08:28;;;;;;;6.13;2.55;;;;;;;22.81;27.75;102773.97;5045041;28;20028;-74
2022/04/27 08:10:54;;;;;;;1.88;1.65;;;;;;;23.17;26.71;102773.75;5049174;28;20029;-74
2022/04/27 08:13:19;;;;;;;2.47;1.92;;;;;;;22.49;26.51;102780.28;5049391;28;20029;-75
2022/04/27 08:15:45;;;;;;;4.40;2.20;;;;;;;21.92;27.39;102784.53;5034392;28;20108;-74
2022/04/27 08:18:10;;;;;;;4.72;2.28;;;;;;;22.27;27.72;102788.88;5064607;28;20021;-74
2022/04/27 08:23:23;;;;;;;5.65;1.80;;;;;;;21.65;28.20;102792.31;5050282;28;20145;-74
2022/04/27 08:25:50;;;;;;;1.88;1.70;;;;;;;21.96;27.03;102794.19;5048790;28;20349;-75
2022/04/27 08:28:16;;;;;;;3.53;1.73;;;;;;;22.31;26.46;102801.19;5048826;28;20124;-75
2022/04/27 08:30:46;;;;;;;2.33;1.60;;;;;;;21.00;26.25;102804.50;5050499;28;20021;-75
2022/04/27 08:33:13;;;;;;;1.98;1.48;;;;;;;21.28;25.64;102798.53;5050176;28;20116;-74
2022/04/27 08:35:38;;;;;;;2.63;1.15;;;;;;;21.52;27.29;102810.38;5028824;28;20037;-75
2022/04/27 08:38:05;;;;;;;5.15;2.45;;;;;;;20.72;26.31;102805.13;5029272;28;20021;-74
2022/04/27 08:40:32;;;;;;;3.35;1.35;;;;;;;21.11;27.11;102806.91;5029193;28;20339;-75
2022/04/27 08:43:01;;;;;;;2.65;1.83;;;;;;;20.88;26.92;102815.41;5029194;28;20025;-75
2022/04/27 08:45:26;;;;;;;4.20;1.80;;;;;;;21.34;26.55;102803.72;5037117;28;20036;-74
2022/04/27 08:47:52;;;;;;;2.03;1.48;;;;;;;21.19;26.57;102816.44;5048733;28;20031;-75
2022/04/27 08:50:20;;;;;;;1.67;1.38;;;;;;;21.75;25.64;102814.25;5032325;28;20071;-75
2022/04/27 08:52:46;;;;;;;3.28;1.70;;;;;;;22.23;25.13;102823.63;5029672;28;20089;-75
2022/04/27 08:55:12;;;;;;;1.33;1.13;;;;;;;21.48;25.22;102817.53;5044910;28;20034;-75
2022/04/27 08:57:39;;;;;;;3.25;1.30;;;;;;;22.08;25.46;102812.50;5029141;28;20465;-75
2022/04/27 09:00:07;;;;;;;5.40;1.77;;;;;;;22.52;25.27;102823.69;5042702;28;20516;-75
2022/04/27 09:02:33;;;;;;;2.17;1.55;;;;;;;22.08;25.95;102820.47;5049032;28;20021;-75
2022/04/27 09:05:10;;;;;;;1.70;1.60;;;;;;;22.11;25.29;102823.06;5047609;28;20396;-75
2022/04/27 09:07:42;;;;;;;3.00;1.70;;;;;;;21.50;26.23;102826.38;5047799;28;20639;-75
2022/04/27 09:10:11;;;;;;;2.13;1.92;;;;;;;21.49;25.96;102824.59;5047617;28;20037;-75
2022/04/27 09:12:44;;;;;;;4.00;2.30;;;;;;;19.12;28.96;102835.31;5048721;28;20511;-74
2022/04/27 09:15:11;;;;;;;4.30;2.47;;;;;;;20.47;28.86;102836.59;5046354;28;20043;-74
2022/04/27 09:23:19;;;;;;;3.08;2.28;;;;;;;19.74;29.53;102839.66;5049806;28;20063;-74
2022/04/27 09:25:45;;;;;;;3.10;2.60;;;;;;;19.71;29.49;102829.13;5034893;28;20481;-74
2022/04/27 09:28:10;;;;;;;3.47;2.63;;;;;;;19.58;29.35;102831.09;5047235;28;20029;-75
2022/04/27 09:30:36;;;;;;;3.47;2.67;;;;;;;19.67;29.29;102836.22;5048106;28;20025;-74
2022/04/27 09:33:01;;;;;;;4.75;2.53;;;;;;;21.15;27.62;102836.03;5047340;28;20028;-74
2022/04/27 09:35:34;;;;;;;4.40;2.40;;;;;;;21.49;26.37;102834.38;5049552;28;20064;-75
2022/04/27 09:38:13;;;;;;;3.72;2.65;;;;;;;21.00;26.46;102836.41;5045750;28;20107;-74
2022/04/27 09:40:50;;;;;;;3.72;2.50;;;;;;;20.73;27.40;102840.53;5034942;28;20384;-74
2022/04/27 09:43:16;;;;;;;4.57;3.00;;;;;;;21.05;26.82;102837.19;5048057;28;20064;-74
2022/04/27 09:45:45;;;;;;;5.78;3.08;;;;;;;21.23;26.28;102843.00;5049509;28;20361;-75
2022/04/27 09:48:19;;;;;;;4.97;2.58;;;;;;;21.24;27.79;102844.72;5049209;28;20166;-75
2022/04/27 09:50:46;;;;;;;5.45;3.22;;;;;;;22.31;26.62;102840.25;5046683;28;20393;-75
2022/04/27 09:53:12;;;;;;;5.38;3.35;;;;;;;22.45;26.44;102848.78;5031773;28;20036;-74
2022/04/27 09:55:43;;;;;;;6.93;3.20;;;;;;;22.11;26.94;102844.34;5048144;28;20036;-74
2022/04/27 09:58:13;;;;;;;9.23;2.93;;;;;;;22.89;26.37;102848.41;5049195;28;20029;-74
2022/04/27 10:00:43;;;;;;;6.13;3.13;;;;;;;22.60;26.32;102844.81;5049466;28;20029;-74
2022/04/27 10:03:12;;;;;;;6.35;3.00;;;;;;;21.96;26.83;102850.97;5047738;28;20025;-74
2022/04/27 10:05:38;;;;;;;3.92;2.58;;;;;;;22.77;25.97;102843.44;5048200;28;20068;-74
2022/04/27 10:08:05;;;;;;;4.97;3.25;;;;;;;21.84;26.99;102852.16;5042858;28;20067;-75
2022/04/27 10:10:31;;;;;;;3.90;2.40;;;;;;;20.99;27.75;102845.28;5047590;28;20061;-74
2022/04/27 10:12:58;;;;;;;3.10;2.55;;;;;;;21.01;27.64;102840.81;5051837;28;20032;-75
2022/04/27 10:15:24;;;;;;;4.05;2.60;;;;;;;20.88;27.57;102852.63;5053427;28;20021;-75
2022/04/27 10:17:50;;;;;;;4.75;2.45;;;;;;;21.18;27.61;102843.06;5042592;28;20025;-75
2022/04/27 10:20:30;;;;;;;4.22;2.55;;;;;;;21.68;26.33;102834.84;5045361;28;20037;-74
2022/04/27 10:23:27;;;;;;;3.17;2.45;;;;;;;20.16;28.28;102848.69;5051519;28;20228;-74
2022/04/27 10:26:08;;;;;;;4.07;2.20;;;;;;;20.80;28.06;102851.00;5050241;28;20033;-75
2022/04/27 10:28:36;;;;;;;5.15;2.35;;;;;;;21.71;27.40;102840.06;5051021;28;20033;-74
2022/04/27 10:31:03;;;;;;;3.83;2.38;;;;;;;23.05;25.30;102835.44;5051747;28;20064;-74
2022/04/27 10:33:56;;;;;;;4.70;2.17;;;;;;;23.57;26.15;102832.94;5051062;28;20021;-74
2022/04/27 10:36:27;;;;;;;7.25;2.08;;;;;;;21.94;26.47;102851.91;5042308;28;20037;-75
2022/04/27 10:39:21;;;;;;;5.20;1.85;;;;;;;21.85;26.89;102843.25;5037608;28;20021;-74
2022/04/27 10:42:04;;;;;;;6.68;1.80;;;;;;;22.48;27.16;102843.38;5046297;28;20079;-74
2022/04/27 10:44:51;;;;;;;7.30;1.88;;;;;;;22.47;27.01;102836.28;5046217;28;20385;-75
2022/04/27 10:47:20;;;;;;;6.20;1.92;;;;;;;23.11;26.33;102839.72;5031277;28;20033;-74
2022/04/27 10:49:47;;;;;;;5.07;1.88;;;;;;;22.05;26.49;102844.53;5032374;28;20048;-75
2022/04/27 10:52:13;;;;;;;7.20;1.90;;;;;;;22.78;26.44;102846.06;5031593;28;20044;-74
2022/04/27 10:54:40;;;;;;;4.30;1.85;;;;;;;20.77;29.17;102847.53;5040209;28;20388;-75
2022/04/27 10:57:14;;;;;;;5.82;1.70;;;;;;;21.76;27.43;102846.16;5052932;28;20071;-74
2022/04/27 10:59:47;;;;;;;3.95;1.60;;;;;;;20.98;27.06;102849.72;5042238;28;20036;-75
2022/04/27 11:02:32;;;;;;;4.50;2.00;;;;;;;23.07;24.96;102841.63;5042518;28;20096;-75
2022/04/27 11:04:58;;;;;;;7.07;2.00;;;;;;;23.01;25.96;102839.13;5030982;28;20030;-75
2022/04/27 11:07:55;;;;;;;4.72;1.85;;;;;;;22.87;25.03;102845.78;5030207;28;20051;-75
2022/04/27 11:10:21;;;;;;;3.70;1.85;;;;;;;23.05;24.93;102832.78;5031982;28;20040;-75
2022/04/27 11:12:56;;;;;;;5.38;2.13;;;;;;;24.40;23.59;102837.19;5050287;28;20075;-75
2022/04/27 11:15:24;;;;;;;2.17;1.63;;;;;;;23.75;24.47;102839.44;5049619;28;20461;-76
2022/04/27 11:18:01;;;;;;;4.55;1.80;;;;;;;24.68;23.82;102833.50;5049512;28;20052;-75
2022/04/27 11:20:37;;;;;;;3.58;1.42;;;;;;;25.20;22.83;102836.81;5032224;28;20036;-74
2022/04/27 11:23:08;;;;;;;2.35;1.33;;;;;;;24.44;23.13;102844.19;5042358;28;20040;-75
2022/04/27 11:25:39;;;;;;;3.55;1.75;;;;;;;23.84;23.93;102839.13;5033174;28;20029;-75
2022/04/27 11:28:08;;;;;;;5.13;1.80;;;;;;;24.59;22.95;102834.69;5030657;28;20064;-75
2022/04/27 11:30:34;;;;;;;4.40;1.40;;;;;;;23.95;23.18;102840.59;5032194;28;20108;-76
2022/04/27 11:33:01;;;;;;;4.38;1.85;;;;;;;23.71;23.83;102838.69;5040780;28;20021;-75
2022/04/27 11:35:47;;;;;;;4.97;2.10;;;;;;;22.82;24.18;102834.38;5051732;28;20029;-75
2022/04/27 11:38:17;;;;;;;4.38;1.92;;;;;;;23.27;24.25;102841.00;5050909;28;20099;-75
2022/04/27 11:40:43;;;;;;;5.28;2.30;;;;;;;23.91;23.92;102833.63;5034168;28;20032;-74
2022/04/27 11:43:09;;;;;;;4.63;2.00;;;;;;;25.24;22.29;102825.03;5050140;28;20025;-75